Time;durP1;ratioP1;P1;durP2;ratioP2;P2;SDS_P1;SDS_P2;PMS_P1;PMS_P2;Temp;Humidity;BMP_temperature;BMP_pressure;BME280_temperature;BME280_humidity;BME280_pressure;Samples;Min_cycle;Max_cycle;Signal;HPM_P1;HPM_P2
2021/06/11 00:04:57;;;;;;;2.10;1.67;;;;;;;;;;10280851;28;20037;-62
2021/06/11 00:09:54;;;;;;;1.67;1.57;;;;;;;;;;10284284;28;20041;-64
2021/06/11 00:14:51;;;;;;;1.70;1.60;;;;;;;;;;10292205;28;20133;-62
2021/06/11 00:19:49;;;;;;;1.77;1.60;;;;;;;;;;10287409;28;20121;-62
2021/06/11 00:24:46;;;;;;;2.07;1.50;;;;;;;;;;10287179;28;20034;-62
2021/06/11 00:29:44;;;;;;;1.63;1.40;;;;;;;;;;10271343;28;20037;-61
2021/06/11 00:34:41;;;;;;;1.70;1.60;;;;;;;;;;10282318;28;20057;-62
2021/06/11 00:39:38;;;;;;;2.23;1.50;;;;;;;;;;10286197;28;20038;-62
2021/06/11 00:44:36;;;;;;;2.90;1.20;;;;;;;;;;10293608;28;20033;-61
2021/06/11 00:49:33;;;;;;;1.73;1.40;;;;;;;;;;10289093;28;20033;-61
2021/06/11 00:54:31;;;;;;;2.00;1.37;;;;;;;;;;10272640;28;20071;-61
2021/06/11 00:59:29;;;;;;;1.83;1.23;;;;;;;;;;10293567;28;20056;-61
2021/06/11 01:04:26;;;;;;;3.67;1.70;;;;;;;;;;10287978;28;20041;-61
2021/06/11 01:09:24;;;;;;;1.57;1.47;;;;;;;;;;10295047;28;20661;-61
2021/06/11 01:14:21;;;;;;;2.28;1.63;;;;;;;;;;10285472;28;20029;-63
2021/06/11 01:19:21;;;;;;;2.13;1.90;;;;;;;;;;10286677;28;20052;-61
2021/06/11 01:24:20;;;;;;;2.60;1.50;;;;;;;;;;10269275;28;20289;-60
2021/06/11 01:29:36;;;;;;;1.95;1.75;;;;;;;;;;10296149;28;20041;-65
2021/06/11 01:34:36;;;;;;;2.13;1.65;;;;;;;;;;10287993;28;20041;-63
2021/06/11 01:39:34;;;;;;;3.92;1.80;;;;;;;;;;10285813;28;20562;-63
2021/06/11 01:44:32;;;;;;;2.45;1.58;;;;;;;;;;10270768;28;20099;-64
2021/06/11 01:49:29;;;;;;;;;;;;;;;;;;10293759;28;20091;-63
2021/06/11 01:54:27;;;;;;;3.10;1.48;;;;;;;;;;10294192;28;19924;-64
2021/06/11 01:59:25;;;;;;;2.77;1.53;;;;;;;;;;10294890;28;20403;-64
2021/06/11 02:04:23;;;;;;;1.73;1.50;;;;;;;;;;10301049;28;20088;-64
2021/06/11 02:09:21;;;;;;;2.10;1.48;;;;;;;;;;10268588;28;20034;-63
2021/06/11 02:14:18;;;;;;;1.85;1.75;;;;;;;;;;10299560;28;20407;-64
2021/06/11 02:19:17;;;;;;;1.90;1.73;;;;;;;;;;10291810;28;20419;-63
2021/06/11 02:24:15;;;;;;;2.15;1.95;;;;;;;;;;10294792;28;20068;-64
2021/06/11 02:29:12;;;;;;;1.77;1.67;;;;;;;;;;10291574;28;20041;-64
2021/06/11 02:34:12;;;;;;;2.10;2.00;;;;;;;;;;10295097;28;20455;-64
2021/06/11 02:39:09;;;;;;;1.85;1.70;;;;;;;;;;10296292;28;20030;-64
2021/06/11 02:44:08;;;;;;;1.90;1.80;;;;;;;;;;10279683;28;20034;-63
2021/06/11 02:49:16;;;;;;;2.20;2.00;;;;;;;;;;10279409;28;20525;-64
2021/06/11 02:54:16;;;;;;;3.33;2.63;;;;;;;;;;10278149;28;20037;-64
2021/06/11 02:59:17;;;;;;;2.40;2.20;;;;;;;;;;10290215;28;20025;-63
2021/06/11 03:04:15;;;;;;;2.22;2.03;;;;;;;;;;10289426;28;20045;-63
2021/06/11 03:09:13;;;;;;;1.87;1.77;;;;;;;;;;10301249;28;20038;-63
2021/06/11 03:14:11;;;;;;;1.95;1.73;;;;;;;;;;10281896;28;20119;-63
2021/06/11 03:19:10;;;;;;;2.57;1.57;;;;;;;;;;10299638;28;20038;-64
2021/06/11 03:24:07;;;;;;;1.73;1.63;;;;;;;;;;10300155;28;20803;-62
2021/06/11 03:29:07;;;;;;;2.97;1.60;;;;;;;;;;10299808;28;20488;-63
2021/06/11 03:34:06;;;;;;;2.92;2.10;;;;;;;;;;10302857;28;20038;-63
2021/06/11 03:39:06;;;;;;;1.67;1.58;;;;;;;;;;10302869;28;20506;-64
2021/06/11 03:44:04;;;;;;;2.20;2.00;;;;;;;;;;10290909;28;20038;-64
2021/06/11 03:49:02;;;;;;;3.65;2.30;;;;;;;;;;10269638;28;20511;-64
2021/06/11 03:54:05;;;;;;;2.20;2.00;;;;;;;;;;10289101;28;20060;-64
2021/06/11 03:59:03;;;;;;;2.55;2.15;;;;;;;;;;10286911;28;20095;-65
2021/06/11 04:04:01;;;;;;;4.50;2.50;;;;;;;;;;10307652;28;20079;-64
2021/06/11 04:09:06;;;;;;;2.33;2.13;;;;;;;;;;10310472;28;20037;-64
2021/06/11 04:14:04;;;;;;;2.72;2.22;;;;;;;;;;10259393;28;20550;-65
2021/06/11 04:19:02;;;;;;;3.20;2.90;;;;;;;;;;10264600;28;20049;-66
2021/06/11 04:24:01;;;;;;;3.33;2.97;;;;;;;;;;10252673;28;20037;-64
2021/06/11 04:28:59;;;;;;;4.35;3.05;;;;;;;;;;10283630;28;20604;-64
2021/06/11 04:33:58;;;;;;;5.00;3.72;;;;;;;;;;10271017;28;20483;-65
2021/06/11 04:39:00;;;;;;;5.80;5.20;;;;;;;;;;10280311;28;20049;-66
2021/06/11 04:43:59;;;;;;;10.10;6.75;;;;;;;;;;10277014;28;20739;-65
2021/06/11 04:48:56;;;;;;;11.48;8.95;;;;;;;;;;10263513;28;20046;-63
2021/06/11 04:53:54;;;;;;;8.87;7.97;;;;;;;;;;10281849;28;20072;-63
2021/06/11 04:58:53;;;;;;;10.53;8.47;;;;;;;;;;10279119;28;20052;-64
2021/06/11 05:03:51;;;;;;;7.13;6.43;;;;;;;;;;10284014;28;20037;-65
2021/06/11 05:08:48;;;;;;;5.50;4.97;;;;;;;;;;10280030;28;20037;-64
2021/06/11 05:13:46;;;;;;;7.83;5.80;;;;;;;;;;10275276;28;20380;-65
2021/06/11 05:18:43;;;;;;;7.47;6.57;;;;;;;;;;10269542;28;20045;-63
2021/06/11 05:23:41;;;;;;;7.20;6.50;;;;;;;;;;10272955;28;20048;-63
2021/06/11 05:28:38;;;;;;;6.63;5.93;;;;;;;;;;10283052;28;20108;-64
2021/06/11 05:33:35;;;;;;;6.97;4.83;;;;;;;;;;10270166;28;20060;-62
2021/06/11 05:38:33;;;;;;;9.27;8.30;;;;;;;;;;10278079;28;20120;-62
2021/06/11 05:43:30;;;;;;;5.37;4.87;;;;;;;;;;10278745;28;20125;-62
2021/06/11 05:48:28;;;;;;;6.53;4.77;;;;;;;;;;10273294;28;20049;-65
2021/06/11 05:53:25;;;;;;;5.70;3.87;;;;;;;;;;10274916;28;20502;-65
2021/06/11 05:58:23;;;;;;;5.05;3.88;;;;;;;;;;10256953;28;20029;-63
2021/06/11 06:03:20;;;;;;;6.43;3.40;;;;;;;;;;10291007;28;20043;-63
2021/06/11 06:08:18;;;;;;;6.30;3.50;;;;;;;;;;10283398;28;20025;-64
2021/06/11 06:13:15;;;;;;;7.90;3.60;;;;;;;;;;10269544;28;20634;-64
2021/06/11 06:18:13;;;;;;;;;;;;;;;;;;10268258;28;20454;-63
2021/06/11 06:23:11;;;;;;;5.97;3.92;;;;;;;;;;10268488;28;19905;-66
2021/06/11 06:28:08;;;;;;;;;;;;;;;;;;10295615;28;20029;-66
2021/06/11 06:33:05;;;;;;;7.90;4.17;;;;;;;;;;10278635;28;19916;-65
2021/06/11 06:38:03;;;;;;;7.93;4.72;;;;;;;;;;10290690;28;20410;-62
2021/06/11 06:43:00;;;;;;;7.33;5.43;;;;;;;;;;10269439;28;20880;-62
2021/06/11 06:47:59;;;;;;;6.03;5.00;;;;;;;;;;10241688;28;20109;-63
2021/06/11 06:53:03;;;;;;;7.88;6.18;;;;;;;;;;10261848;28;20060;-65
2021/06/11 06:58:00;;;;;;;7.25;4.97;;;;;;;;;;10267258;28;20517;-62
2021/06/11 07:02:59;;;;;;;5.00;4.43;;;;;;;;;;10264655;28;20384;-62
2021/06/11 07:07:56;;;;;;;5.25;4.63;;;;;;;;;;10273581;28;20072;-63
2021/06/11 07:12:53;;;;;;;5.80;4.77;;;;;;;;;;10278999;28;20029;-62
2021/06/11 07:17:55;;;;;;;6.20;4.30;;;;;;;;;;10283234;28;20030;-63
2021/06/11 07:22:53;;;;;;;4.40;3.17;;;;;;;;;;10281363;28;20399;-63
2021/06/11 07:27:50;;;;;;;4.10;3.03;;;;;;;;;;10287066;28;20138;-64
2021/06/11 07:32:47;;;;;;;3.97;2.53;;;;;;;;;;10273664;28;20084;-66
2021/06/11 07:37:45;;;;;;;2.60;2.40;;;;;;;;;;10273920;28;20045;-65
2021/06/11 07:42:42;;;;;;;3.10;2.40;;;;;;;;;;10287582;28;20091;-65
2021/06/11 07:47:40;;;;;;;3.50;2.47;;;;;;;;;;10281895;28;20529;-64
2021/06/11 07:52:37;;;;;;;2.60;2.08;;;;;;;;;;10265899;28;20038;-65
2021/06/11 07:57:35;;;;;;;3.70;2.40;;;;;;;;;;10277656;28;20060;-66
2021/06/11 08:02:32;;;;;;;4.78;2.58;;;;;;;;;;10278051;28;20037;-63
2021/06/11 08:07:30;;;;;;;2.40;1.67;;;;;;;;;;10263405;28;20920;-66
2021/06/11 08:12:29;;;;;;;5.03;3.10;;;;;;;;;;10279085;28;20426;-64
2021/06/11 08:17:26;;;;;;;2.85;2.65;;;;;;;;;;10248017;28;20039;-65
2021/06/11 08:22:24;;;;;;;3.72;2.25;;;;;;;;;;10259204;28;20029;-65
2021/06/11 08:27:21;;;;;;;3.70;2.55;;;;;;;;;;10240352;28;20057;-65
2021/06/11 08:32:18;;;;;;;2.13;1.97;;;;;;;;;;10283218;28;20363;-66
2021/06/11 08:37:16;;;;;;;2.43;2.23;;;;;;;;;;10293086;28;20052;-65
2021/06/11 08:42:14;;;;;;;2.92;2.42;;;;;;;;;;10280774;28;20045;-68
2021/06/11 08:47:12;;;;;;;4.30;2.45;;;;;;;;;;10290261;28;20120;-67
2021/06/11 08:52:09;;;;;;;2.28;2.08;;;;;;;;;;10288628;28;20050;-66
2021/06/11 08:57:10;;;;;;;4.63;2.27;;;;;;;;;;10278396;28;20045;-66
2021/06/11 09:02:07;;;;;;;3.65;2.30;;;;;;;;;;10278352;28;20041;-65
2021/06/11 09:07:17;;;;;;;2.00;1.80;;;;;;;;;;10305726;28;20034;-65
2021/06/11 09:12:50;;;;;;;1.83;1.70;;;;;;;;;;10282517;28;20037;-64
2021/06/11 09:17:49;;;;;;;2.03;1.83;;;;;;;;;;10207256;28;20045;-65
2021/06/11 09:22:49;;;;;;;2.15;1.77;;;;;;;;;;10282808;28;20157;-64
2021/06/11 09:27:50;;;;;;;1.75;1.60;;;;;;;;;;10286790;28;20045;-64
2021/06/11 09:32:55;;;;;;;1.65;1.55;;;;;;;;;;10278191;28;20531;-65
2021/06/11 09:38:04;;;;;;;1.80;1.70;;;;;;;;;;10261554;28;20113;-65
2021/06/11 09:43:02;;;;;;;3.38;2.00;;;;;;;;;;10255812;28;20136;-65
2021/06/11 09:48:00;;;;;;;5.43;2.03;;;;;;;;;;10283671;28;20042;-65
2021/06/11 09:53:03;;;;;;;3.17;1.60;;;;;;;;;;10275476;28;20049;-66
2021/06/11 09:58:05;;;;;;;1.55;1.45;;;;;;;;;;10266207;28;20037;-65
2021/06/11 10:03:09;;;;;;;1.80;1.67;;;;;;;;;;10291224;28;20093;-66
2021/06/11 10:08:07;;;;;;;1.95;1.42;;;;;;;;;;10275275;28;20025;-66
2021/06/11 10:13:05;;;;;;;1.88;1.63;;;;;;;;;;10277821;28;20398;-66
2021/06/11 10:18:03;;;;;;;1.90;1.70;;;;;;;;;;10281167;28;20036;-66
2021/06/11 10:23:01;;;;;;;1.55;1.33;;;;;;;;;;10265956;28;20033;-66
2021/06/11 10:28:00;;;;;;;1.98;1.27;;;;;;;;;;10273873;28;20307;-66
2021/06/11 10:32:59;;;;;;;2.05;1.65;;;;;;;;;;10276618;28;20032;-65
2021/06/11 10:37:56;;;;;;;2.35;1.42;;;;;;;;;;10262178;28;20038;-65
2021/06/11 10:43:13;;;;;;;2.10;1.30;;;;;;;;;;10276589;28;20046;-65
2021/06/11 10:48:11;;;;;;;1.58;1.48;;;;;;;;;;10250166;28;20507;-65
2021/06/11 10:53:10;;;;;;;1.53;1.30;;;;;;;;;;10263842;28;20041;-66
2021/06/11 10:58:08;;;;;;;1.33;1.33;;;;;;;;;;10261747;28;20041;-66
2021/06/11 11:03:07;;;;;;;1.77;1.33;;;;;;;;;;10249285;28;20036;-65
2021/06/11 11:08:06;;;;;;;1.33;1.27;;;;;;;;;;10282282;28;20060;-64
2021/06/11 11:13:07;;;;;;;2.20;1.35;;;;;;;;;;10279637;28;20053;-63
2021/06/11 11:18:06;;;;;;;1.70;1.30;;;;;;;;;;10283943;28;20395;-65
2021/06/11 11:23:05;;;;;;;1.38;1.25;;;;;;;;;;10253327;28;20037;-65
2021/06/11 11:28:03;;;;;;;1.60;1.38;;;;;;;;;;10285753;28;20136;-65
2021/06/11 11:33:01;;;;;;;2.63;1.50;;;;;;;;;;10247866;28;20414;-64
2021/06/11 11:38:00;;;;;;;1.42;1.33;;;;;;;;;;10285576;28;20113;-64
2021/06/11 11:42:59;;;;;;;1.25;1.15;;;;;;;;;;10279701;28;20448;-64
2021/06/11 11:47:58;;;;;;;1.83;1.15;;;;;;;;;;10264846;28;20066;-64
2021/06/11 11:52:55;;;;;;;1.60;1.10;;;;;;;;;;10280447;28;20041;-64
2021/06/11 11:57:53;;;;;;;1.47;1.37;;;;;;;;;;10279443;28;20533;-63
2021/06/11 12:02:50;;;;;;;1.80;1.07;;;;;;;;;;10270899;28;20045;-63
2021/06/11 12:07:47;;;;;;;1.00;1.00;;;;;;;;;;10276793;28;21074;-64
2021/06/11 12:12:45;;;;;;;1.20;1.10;;;;;;;;;;10292557;28;20136;-64
2021/06/11 12:17:42;;;;;;;1.57;1.37;;;;;;;;;;10271167;28;20038;-64
2021/06/11 12:22:40;;;;;;;1.30;1.10;;;;;;;;;;10280410;28;20490;-63
2021/06/11 12:27:37;;;;;;;1.17;1.03;;;;;;;;;;10286025;28;20381;-63
2021/06/11 12:32:35;;;;;;;1.33;1.23;;;;;;;;;;10282262;28;20637;-63
2021/06/11 12:37:32;;;;;;;1.70;1.20;;;;;;;;;;10294362;28;20041;-63
2021/06/11 12:42:35;;;;;;;1.15;1.08;;;;;;;;;;10272117;28;20077;-62
2021/06/11 12:47:33;;;;;;;2.38;1.20;;;;;;;;;;10269254;28;20522;-63
2021/06/11 12:52:31;;;;;;;1.75;1.30;;;;;;;;;;10278890;28;20128;-63
2021/06/11 12:57:28;;;;;;;1.63;1.00;;;;;;;;;;10286496;28;20068;-63
2021/06/11 13:02:27;;;;;;;1.70;1.60;;;;;;;;;;10273429;28;20051;-62
2021/06/11 13:07:27;;;;;;;3.40;1.77;;;;;;;;;;10275273;28;20029;-63
2021/06/11 13:12:24;;;;;;;1.63;1.52;;;;;;;;;;10286341;28;20514;-62
2021/06/11 13:17:21;;;;;;;4.77;1.93;;;;;;;;;;10280433;28;20037;-62
2021/06/11 13:22:19;;;;;;;1.33;1.23;;;;;;;;;;10294590;28;20029;-62
2021/06/11 13:27:16;;;;;;;2.43;1.60;;;;;;;;;;10296893;28;20036;-62
2021/06/11 13:32:14;;;;;;;1.37;1.37;;;;;;;;;;10295836;28;20065;-62
2021/06/11 13:37:11;;;;;;;2.80;1.70;;;;;;;;;;10291655;28;20033;-62
2021/06/11 13:42:08;;;;;;;2.10;1.90;;;;;;;;;;10298374;28;20045;-62
2021/06/11 13:47:10;;;;;;;1.93;1.83;;;;;;;;;;10294919;28;20037;-62
2021/06/11 13:52:07;;;;;;;2.10;1.90;;;;;;;;;;10288694;28;20729;-63
2021/06/11 13:57:05;;;;;;;1.70;1.60;;;;;;;;;;10294185;28;20045;-63
2021/06/11 14:02:03;;;;;;;2.10;2.00;;;;;;;;;;10293632;28;20291;-63
2021/06/11 14:07:00;;;;;;;2.25;1.90;;;;;;;;;;10286369;28;20502;-63
2021/06/11 14:11:57;;;;;;;2.40;2.20;;;;;;;;;;10287001;28;20034;-63
2021/06/11 14:16:55;;;;;;;2.10;2.00;;;;;;;;;;10289094;28;20041;-63
2021/06/11 14:21:52;;;;;;;2.23;2.10;;;;;;;;;;10289032;28;20045;-63
2021/06/11 14:26:50;;;;;;;2.43;2.00;;;;;;;;;;10287049;28;20715;-63
2021/06/11 14:31:47;;;;;;;2.40;2.20;;;;;;;;;;10286273;28;20041;-63
2021/06/11 14:36:45;;;;;;;2.65;1.85;;;;;;;;;;10295526;28;20077;-63
2021/06/11 14:41:42;;;;;;;2.27;2.17;;;;;;;;;;10299668;28;20041;-63
2021/06/11 14:46:39;;;;;;;2.47;2.27;;;;;;;;;;10301094;28;20041;-63
2021/06/11 14:51:38;;;;;;;2.00;1.90;;;;;;;;;;10296535;28;20184;-63
2021/06/11 14:56:40;;;;;;;2.70;2.40;;;;;;;;;;10278460;28;20420;-63
2021/06/11 15:01:40;;;;;;;2.53;2.33;;;;;;;;;;10287301;28;20075;-63
2021/06/11 15:06:37;;;;;;;2.45;2.25;;;;;;;;;;10285228;28;20428;-63
2021/06/11 15:11:35;;;;;;;2.77;2.57;;;;;;;;;;10279753;28;20802;-63
2021/06/11 15:16:33;;;;;;;3.63;2.50;;;;;;;;;;10288461;28;20500;-63
2021/06/11 15:21:31;;;;;;;2.70;2.50;;;;;;;;;;10286710;28;20413;-63
2021/06/11 15:26:28;;;;;;;2.65;2.45;;;;;;;;;;10261066;28;20049;-63
2021/06/11 15:31:26;;;;;;;1.97;1.87;;;;;;;;;;10283949;28;20529;-63
2021/06/11 15:36:23;;;;;;;3.27;2.30;;;;;;;;;;10281423;28;20409;-63
2021/06/11 15:41:23;;;;;;;2.60;2.40;;;;;;;;;;10295630;28;20280;-64
2021/06/11 15:46:20;;;;;;;2.33;2.10;;;;;;;;;;10296703;28;20049;-64
2021/06/11 15:51:18;;;;;;;2.70;1.98;;;;;;;;;;10296258;28;20038;-63
2021/06/11 15:56:15;;;;;;;3.08;2.25;;;;;;;;;;10299143;28;20424;-63
2021/06/11 16:01:13;;;;;;;1.93;1.80;;;;;;;;;;10305480;28;20042;-63
2021/06/11 16:06:10;;;;;;;2.57;2.37;;;;;;;;;;10306218;28;20637;-63
2021/06/11 16:11:07;;;;;;;3.23;2.13;;;;;;;;;;10285247;28;20030;-63
2021/06/11 16:16:05;;;;;;;2.30;2.10;;;;;;;;;;10303366;28;20045;-63
2021/06/11 16:21:02;;;;;;;2.72;2.40;;;;;;;;;;10300750;28;22210;-63
2021/06/11 16:26:00;;;;;;;3.20;2.90;;;;;;;;;;10287989;28;20041;-64
2021/06/11 16:30:57;;;;;;;2.97;2.57;;;;;;;;;;10297412;28;20684;-63
2021/06/11 16:35:55;;;;;;;4.22;2.70;;;;;;;;;;10272639;28;20277;-63
2021/06/11 16:40:52;;;;;;;4.30;2.80;;;;;;;;;;10275981;28;20033;-64
2021/06/11 16:45:50;;;;;;;4.47;2.97;;;;;;;;;;10284264;28;20037;-64
2021/06/11 16:50:47;;;;;;;4.00;3.53;;;;;;;;;;10279065;28;20048;-64
2021/06/11 16:55:45;;;;;;;4.38;3.20;;;;;;;;;;10281777;28;20046;-64
2021/06/11 17:00:43;;;;;;;5.40;3.40;;;;;;;;;;10281026;28;20049;-63
2021/06/11 17:05:40;;;;;;;5.80;3.85;;;;;;;;;;10284000;28;20474;-64
2021/06/11 17:10:38;;;;;;;5.68;4.07;;;;;;;;;;10286659;28;20038;-63
2021/06/11 17:15:35;;;;;;;8.40;4.53;;;;;;;;;;10288903;28;20037;-64
2021/06/11 17:20:33;;;;;;;4.30;3.57;;;;;;;;;;10291717;28;20041;-64
2021/06/11 17:25:32;;;;;;;6.10;3.80;;;;;;;;;;10284679;28;20287;-64
2021/06/11 17:30:30;;;;;;;3.97;2.97;;;;;;;;;;10283559;28;20641;-64
2021/06/11 17:35:28;;;;;;;3.42;2.90;;;;;;;;;;10283148;28;20106;-64
2021/06/11 17:40:26;;;;;;;3.22;2.92;;;;;;;;;;10286419;28;20199;-64
2021/06/11 17:45:24;;;;;;;3.38;2.75;;;;;;;;;;10266098;28;20189;-63
2021/06/11 17:50:21;;;;;;;3.17;2.80;;;;;;;;;;10277087;28;20156;-64
2021/06/11 17:55:30;;;;;;;3.90;2.65;;;;;;;;;;10271578;28;20168;-63
2021/06/11 18:00:28;;;;;;;3.70;2.65;;;;;;;;;;10275357;28;21230;-64
2021/06/11 18:05:25;;;;;;;3.80;2.57;;;;;;;;;;10279224;28;20490;-64
2021/06/11 18:10:34;;;;;;;4.67;2.47;;;;;;;;;;10277839;28;20272;-63
2021/06/11 18:15:31;;;;;;;3.83;2.90;;;;;;;;;;10260113;28;20765;-63
2021/06/11 18:20:29;;;;;;;3.90;2.50;;;;;;;;;;10285479;28;20144;-64
2021/06/11 18:25:27;;;;;;;3.88;2.88;;;;;;;;;;10290749;28;20030;-63
2021/06/11 18:30:24;;;;;;;3.15;2.30;;;;;;;;;;10280172;28;20044;-63
2021/06/11 18:35:22;;;;;;;4.10;2.40;;;;;;;;;;10281109;28;20037;-64
2021/06/11 18:40:22;;;;;;;4.07;2.40;;;;;;;;;;10288232;28;20037;-63
2021/06/11 18:45:21;;;;;;;3.88;2.53;;;;;;;;;;10281213;28;20041;-64
2021/06/11 18:50:19;;;;;;;3.33;2.53;;;;;;;;;;10290432;28;20041;-64
2021/06/11 18:55:17;;;;;;;5.38;2.72;;;;;;;;;;10292267;28;20037;-64
2021/06/11 19:00:15;;;;;;;3.05;2.47;;;;;;;;;;10291371;28;20431;-64
2021/06/11 19:05:12;;;;;;;3.88;2.50;;;;;;;;;;10291683;28;20533;-63
2021/06/11 19:10:11;;;;;;;3.10;2.75;;;;;;;;;;10275393;28;20045;-64
2021/06/11 19:15:19;;;;;;;4.35;2.40;;;;;;;;;;10270966;28;20493;-64
2021/06/11 19:20:17;;;;;;;;;;;;;;;;;;10280408;28;20121;-64
2021/06/11 19:25:14;;;;;;;3.67;2.90;;;;;;;;;;10294115;28;20075;-64
2021/06/11 19:30:16;;;;;;;3.25;2.95;;;;;;;;;;10286882;28;20061;-64
2021/06/11 19:35:18;;;;;;;3.88;2.72;;;;;;;;;;10310185;28;20057;-63
2021/06/11 19:40:19;;;;;;;3.53;2.67;;;;;;;;;;10307563;28;20030;-64
2021/06/11 19:45:18;;;;;;;3.58;2.80;;;;;;;;;;10305743;28;20038;-65
2021/06/11 19:50:15;;;;;;;4.25;3.33;;;;;;;;;;10270049;28;20041;-63
2021/06/11 19:55:27;;;;;;;3.47;3.17;;;;;;;;;;10272885;28;20411;-64
2021/06/11 20:00:24;;;;;;;3.83;2.92;;;;;;;;;;10282278;28;20057;-64
2021/06/11 20:05:22;;;;;;;3.28;2.65;;;;;;;;;;10274413;28;20037;-64
2021/06/11 20:10:19;;;;;;;3.60;2.65;;;;;;;;;;10271014;28;20464;-63
2021/06/11 20:15:17;;;;;;;3.03;2.72;;;;;;;;;;10280348;28;20041;-64
2021/06/11 20:20:15;;;;;;;3.42;3.13;;;;;;;;;;10274240;28;20045;-63
2021/06/11 20:25:12;;;;;;;3.65;2.70;;;;;;;;;;10283975;28;20124;-65
2021/06/11 20:30:10;;;;;;;;;;;;;;;;;;10281111;28;20145;-64
2021/06/11 20:35:08;;;;;;;3.47;2.83;;;;;;;;;;10288340;28;20291;-64
2021/06/11 20:40:07;;;;;;;3.17;2.90;;;;;;;;;;10279899;28;20037;-65
2021/06/11 20:45:05;;;;;;;3.55;2.72;;;;;;;;;;10279947;28;20065;-64
2021/06/11 20:50:04;;;;;;;2.92;2.67;;;;;;;;;;10285600;28;20056;-65
2021/06/11 20:55:02;;;;;;;3.00;2.70;;;;;;;;;;10282591;28;20549;-65
2021/06/11 20:59:59;;;;;;;;;;;;;;;;;;10272970;28;20113;-65
2021/06/11 21:05:03;;;;;;;4.57;2.97;;;;;;;;;;10284447;28;20028;-63
2021/06/11 21:10:01;;;;;;;3.05;2.83;;;;;;;;;;10281986;28;20127;-65
2021/06/11 21:14:58;;;;;;;4.03;2.70;;;;;;;;;;10276954;28;21326;-63
2021/06/11 21:19:56;;;;;;;4.63;2.53;;;;;;;;;;10293888;28;20115;-63
2021/06/11 21:24:53;;;;;;;;;;;;;;;;;;10278892;28;20044;-63
2021/06/11 21:29:51;;;;;;;3.75;2.83;;;;;;;;;;10281321;28;19931;-63
2021/06/11 21:34:48;;;;;;;4.05;3.13;;;;;;;;;;10285803;28;20103;-63
2021/06/11 21:39:45;;;;;;;3.70;3.07;;;;;;;;;;10273244;28;20091;-63
2021/06/11 21:44:43;;;;;;;3.20;2.90;;;;;;;;;;10275234;28;20037;-63
2021/06/11 21:49:40;;;;;;;3.53;3.10;;;;;;;;;;10288110;28;20308;-63
2021/06/11 21:54:38;;;;;;;3.60;3.27;;;;;;;;;;10293939;28;20152;-63
2021/06/11 21:59:35;;;;;;;3.93;3.50;;;;;;;;;;10277943;28;20041;-63
2021/06/11 22:04:32;;;;;;;3.90;3.30;;;;;;;;;;10286706;28;20052;-63
2021/06/11 22:09:30;;;;;;;4.63;3.33;;;;;;;;;;10277012;28;20069;-63
2021/06/11 22:14:27;;;;;;;5.37;3.47;;;;;;;;;;10278086;28;20172;-64
2021/06/11 22:19:25;;;;;;;4.87;3.63;;;;;;;;;;10282210;28;20492;-64
2021/06/11 22:24:22;;;;;;;5.43;3.43;;;;;;;;;;10272257;28;20568;-63
2021/06/11 22:29:19;;;;;;;5.53;3.60;;;;;;;;;;10280796;28;20802;-63
2021/06/11 22:34:17;;;;;;;3.63;3.20;;;;;;;;;;10268748;28;20049;-63
2021/06/11 22:39:14;;;;;;;5.70;3.60;;;;;;;;;;10272632;28;20499;-63
2021/06/11 22:44:12;;;;;;;3.67;3.27;;;;;;;;;;10283538;28;20044;-64
2021/06/11 22:49:10;;;;;;;;;;;;;;;;;;10266959;28;20037;-64
2021/06/11 22:54:07;;;;;;;4.85;4.05;;;;;;;;;;10263729;28;19917;-63
2021/06/11 22:59:05;;;;;;;7.10;4.03;;;;;;;;;;10254466;28;20037;-63
2021/06/11 23:04:02;;;;;;;5.80;3.60;;;;;;;;;;10284698;28;20033;-64
2021/06/11 23:09:00;;;;;;;4.93;3.53;;;;;;;;;;10269181;28;20363;-64
2021/06/11 23:13:57;;;;;;;4.73;4.33;;;;;;;;;;10265648;28;20096;-64
2021/06/11 23:18:55;;;;;;;5.20;3.87;;;;;;;;;;10277508;28;20025;-63
2021/06/11 23:23:52;;;;;;;3.83;3.53;;;;;;;;;;10275154;28;20277;-63
2021/06/11 23:28:49;;;;;;;4.80;3.57;;;;;;;;;;10279904;28;20816;-63
2021/06/11 23:33:47;;;;;;;5.37;3.77;;;;;;;;;;10284488;28;20014;-63
2021/06/11 23:38:44;;;;;;;5.37;3.87;;;;;;;;;;10271711;28;20078;-63
2021/06/11 23:43:42;;;;;;;4.53;3.57;;;;;;;;;;10275330;28;20017;-63
2021/06/11 23:48:39;;;;;;;4.40;3.83;;;;;;;;;;10290898;28;20021;-63
2021/06/11 23:53:37;;;;;;;4.40;4.00;;;;;;;;;;10282023;28;20522;-63
2021/06/11 23:58:34;;;;;;;5.30;3.77;;;;;;;;;;10285132;28;20694;-63
